Time;durP1;ratioP1;P1;durP2;ratioP2;P2;SDS_P1;SDS_P2;PMS_P1;PMS_P2;Temp;Humidity;BMP_temperature;BMP_pressure;BME280_temperature;BME280_humidity;BME280_pressure;Samples;Min_cycle;Max_cycle;Signal;HPM_P1;HPM_P2
2022/05/10 00:01:52;;;;;;;0.00;0.00;;;16.50;82.90;;;;;;4131703;28;20081;-70
2022/05/10 00:04:15;;;;;;;0.00;0.00;;;16.50;83.00;;;;;;4131566;28;20046;-67
2022/05/10 00:06:41;;;;;;;0.00;0.00;;;16.50;83.00;;;;;;4131601;28;20133;-65
2022/05/10 00:09:08;;;;;;;0.00;0.00;;;16.50;83.00;;;;;;4132405;28;20048;-67
2022/05/10 00:11:30;;;;;;;0.00;0.00;;;16.50;83.30;;;;;;4133413;28;20050;-69
2022/05/10 00:13:54;;;;;;;0.00;0.00;;;16.50;83.40;;;;;;4134605;28;20112;-69
2022/05/10 00:16:21;;;;;;;0.00;0.00;;;16.30;83.60;;;;;;4148375;28;20155;-68
2022/05/10 00:18:46;;;;;;;0.00;0.00;;;16.20;84.00;;;;;;4134651;28;20093;-70
2022/05/10 00:21:13;;;;;;;0.00;0.00;;;16.30;83.90;;;;;;4134756;28;20042;-67
2022/05/10 00:23:35;;;;;;;0.00;0.00;;;16.30;83.70;;;;;;4134635;28;20054;-66
2022/05/10 00:26:01;;;;;;;0.00;0.00;;;16.30;83.70;;;;;;4148260;28;20046;-70
2022/05/10 00:28:25;;;;;;;0.00;0.00;;;16.20;84.30;;;;;;4134619;28;20051;-69
2022/05/10 00:30:56;;;;;;;0.00;0.00;;;16.20;84.00;;;;;;4135251;28;20057;-72
2022/05/10 00:33:33;;;;;;;0.00;0.00;;;16.20;83.90;;;;;;4135260;28;20080;-67
2022/05/10 00:35:58;;;;;;;0.00;0.00;;;16.30;83.80;;;;;;4147764;28;20112;-67
2022/05/10 00:38:31;;;;;;;0.00;0.00;;;16.20;84.00;;;;;;4134328;28;20043;-67
2022/05/10 00:41:11;;;;;;;0.00;0.00;;;16.20;84.00;;;;;;4121070;28;20058;-70
2022/05/10 00:43:41;;;;;;;0.00;0.00;;;16.20;84.00;;;;;;4134224;28;20093;-65
2022/05/10 00:46:22;;;;;;;0.00;0.00;;;16.20;84.00;;;;;;4134941;28;20468;-69
2022/05/10 00:49:01;;;;;;;0.00;0.00;;;16.20;84.10;;;;;;4134071;28;20062;-68
2022/05/10 00:51:48;;;;;;;0.00;0.00;;;16.00;84.10;;;;;;4134204;28;20483;-72
2022/05/10 00:54:19;;;;;;;0.00;0.00;;;16.00;84.40;;;;;;4134142;28;20050;-67
2022/05/10 00:57:01;;;;;;;0.00;0.00;;;16.00;84.60;;;;;;4147571;28;20042;-67
2022/05/10 00:59:41;;;;;;;0.00;0.00;;;16.00;84.70;;;;;;4147635;28;20046;-69
2022/05/10 01:02:21;;;;;;;0.00;0.00;;;15.90;84.80;;;;;;4134805;28;20121;-68
2022/05/10 01:05:05;;;;;;;0.00;0.00;;;15.90;84.80;;;;;;4134760;28;20050;-70
2022/05/10 01:07:58;;;;;;;0.00;0.00;;;15.80;84.90;;;;;;4134029;28;20045;-66
2022/05/10 01:10:32;;;;;;;0.00;0.00;;;15.70;85.20;;;;;;4134595;28;20441;-69
2022/05/10 01:13:05;;;;;;;0.00;0.00;;;15.70;85.40;;;;;;4133872;28;20050;-71
2022/05/10 01:15:34;;;;;;;0.00;0.00;;;15.70;85.30;;;;;;4147021;28;20468;-68
2022/05/10 01:17:58;;;;;;;0.00;0.00;;;15.70;85.20;;;;;;4134208;28;20060;-65
2022/05/10 01:20:29;;;;;;;0.00;0.00;;;15.80;85.20;;;;;;4147417;28;20073;-67
2022/05/10 01:23:05;;;;;;;0.00;0.00;;;15.70;85.20;;;;;;4132693;28;20057;-68
2022/05/10 01:26:02;;;;;;;0.00;0.00;;;15.80;85.40;;;;;;4133623;28;20390;-67
2022/05/10 01:28:31;;;;;;;0.00;0.00;;;15.70;85.20;;;;;;4147172;28;20136;-69
2022/05/10 01:31:07;;;;;;;0.00;0.00;;;15.80;85.10;;;;;;4133503;28;20133;-68
2022/05/10 01:33:47;;;;;;;0.00;0.00;;;15.80;85.10;;;;;;4134257;28;20062;-68
2022/05/10 01:36:31;;;;;;;0.00;0.00;;;15.80;84.90;;;;;;4133620;28;20072;-69
2022/05/10 01:39:20;;;;;;;0.00;0.00;;;15.80;85.00;;;;;;4133681;28;20046;-71
2022/05/10 01:41:48;;;;;;;0.00;0.00;;;15.80;85.10;;;;;;4147071;28;20038;-68
2022/05/10 01:44:17;;;;;;;0.00;0.00;;;15.70;85.10;;;;;;4133394;28;20050;-67
2022/05/10 01:46:41;;;;;;;0.00;0.00;;;15.70;85.30;;;;;;4133590;28;20525;-70
2022/05/10 01:49:27;;;;;;;0.00;0.00;;;15.70;85.20;;;;;;4133184;28;20066;-69
2022/05/10 01:52:14;;;;;;;0.00;0.00;;;15.70;85.20;;;;;;4146860;28;20046;-66
2022/05/10 01:54:41;;;;;;;0.00;0.00;;;15.70;85.20;;;;;;4133272;28;20445;-70
2022/05/10 01:57:04;;;;;;;0.00;0.00;;;15.70;85.20;;;;;;4133602;28;20057;-71
2022/05/10 01:59:26;;;;;;;0.00;0.00;;;15.70;85.20;;;;;;4133173;28;20042;-66
2022/05/10 02:01:53;;;;;;;0.00;0.00;;;15.60;85.20;;;;;;4133284;28;20454;-68
2022/05/10 02:04:24;;;;;;;0.00;0.00;;;15.70;85.20;;;;;;4146806;28;20048;-69
2022/05/10 02:06:51;;;;;;;0.00;0.00;;;15.70;85.20;;;;;;4133029;28;20485;-66
2022/05/10 02:09:14;;;;;;;0.00;0.00;;;15.60;85.00;;;;;;4132857;28;20142;-67
2022/05/10 02:11:44;;;;;;;0.00;0.00;;;15.60;85.10;;;;;;4132838;28;20046;-70
2022/05/10 02:14:13;;;;;;;0.00;0.00;;;15.50;85.20;;;;;;4146546;28;20069;-67
2022/05/10 02:17:04;;;;;;;0.00;0.00;;;15.50;85.30;;;;;;4132834;28;20038;-69
2022/05/10 02:19:39;;;;;;;0.00;0.00;;;15.40;85.40;;;;;;4132950;28;20042;-65
2022/05/10 02:22:19;;;;;;;0.00;0.00;;;15.40;85.60;;;;;;4132725;28;20038;-68
2022/05/10 02:24:48;;;;;;;0.00;0.00;;;15.30;85.80;;;;;;4132671;28;20053;-68
2022/05/10 02:27:21;;;;;;;0.00;0.00;;;15.20;86.20;;;;;;4133154;28;20042;-68
2022/05/10 02:29:54;;;;;;;0.00;0.00;;;15.10;86.40;;;;;;4132792;28;20066;-68
2022/05/10 02:35:17;;;;;;;0.00;0.00;;;15.20;86.50;;;;;;4145923;28;20042;-68
2022/05/10 02:37:42;;;;;;;0.00;0.00;;;15.00;86.80;;;;;;4132568;28;20105;-71
2022/05/10 02:40:05;;;;;;;0.00;0.00;;;14.90;87.30;;;;;;4132655;28;20142;-70
2022/05/10 02:42:29;;;;;;;0.00;0.00;;;14.70;88.00;;;;;;4132446;28;20054;-71
2022/05/10 02:44:54;;;;;;;0.00;0.00;;;14.50;89.00;;;;;;4145982;28;20089;-68
2022/05/10 02:47:27;;;;;;;0.00;0.00;;;14.40;89.20;;;;;;4133351;28;20055;-67
2022/05/10 02:49:52;;;;;;;0.00;0.00;;;14.40;89.40;;;;;;4148526;28;20108;-67
2022/05/10 02:52:14;;;;;;;0.00;0.00;;;14.30;89.50;;;;;;4135116;28;20081;-67
2022/05/10 02:54:40;;;;;;;0.00;0.00;;;14.40;89.50;;;;;;4134901;28;20109;-66
2022/05/10 02:57:03;;;;;;;0.00;0.00;;;14.30;89.50;;;;;;4134758;28;20046;-67
2022/05/10 02:59:29;;;;;;;0.00;0.00;;;14.20;89.80;;;;;;4148834;28;20050;-66
2022/05/10 03:02:22;;;;;;;0.00;0.00;;;14.20;90.00;;;;;;4148590;28;20566;-69
2022/05/10 03:04:59;;;;;;;0.00;0.00;;;14.20;90.10;;;;;;4134939;28;20095;-67
2022/05/10 03:07:22;;;;;;;0.00;0.00;;;14.00;90.30;;;;;;4134817;28;20050;-68
2022/05/10 03:09:46;;;;;;;0.00;0.00;;;13.90;90.40;;;;;;4134752;28;20083;-65
2022/05/10 03:12:11;;;;;;;0.00;0.00;;;13.90;90.40;;;;;;4121292;28;20063;-67
2022/05/10 03:14:33;;;;;;;0.00;0.00;;;13.90;90.40;;;;;;4148180;28;20104;-66
2022/05/10 03:16:55;;;;;;;0.00;0.00;;;13.90;90.50;;;;;;4148374;28;20133;-66
2022/05/10 03:19:20;;;;;;;0.00;0.00;;;13.90;90.60;;;;;;4134848;28;20061;-68
2022/05/10 03:21:47;;;;;;;0.00;0.00;;;13.80;90.70;;;;;;4134553;28;20039;-70
2022/05/10 03:24:13;;;;;;;0.00;0.00;;;13.70;90.80;;;;;;4148189;28;20101;-69
2022/05/10 03:26:45;;;;;;;0.00;0.00;;;13.80;90.80;;;;;;4134642;28;20078;-70
2022/05/10 03:29:09;;;;;;;0.00;0.00;;;13.90;90.70;;;;;;4148429;28;20112;-66
2022/05/10 03:31:34;;;;;;;0.00;0.00;;;13.90;90.50;;;;;;4134556;28;20500;-66
2022/05/10 03:36:42;;;;;;;0.00;0.00;;;14.00;90.40;;;;;;4134645;28;20101;-71
2022/05/10 03:39:10;;;;;;;0.00;0.00;;;14.00;90.30;;;;;;4148236;28;20038;-69
2022/05/10 03:41:32;;;;;;;0.00;0.00;;;14.00;90.30;;;;;;4134556;28;20105;-65
2022/05/10 03:43:59;;;;;;;0.00;0.00;;;14.00;90.30;;;;;;4148309;28;20160;-66
2022/05/10 03:46:21;;;;;;;0.00;0.00;;;14.10;90.10;;;;;;4135275;28;20051;-67
2022/05/10 03:48:44;;;;;;;0.00;0.00;;;14.20;90.00;;;;;;4137634;28;20116;-68
2022/05/10 03:51:08;;;;;;;0.00;0.00;;;14.20;90.20;;;;;;4137724;28;20170;-69
2022/05/10 03:53:33;;;;;;;0.00;0.00;;;14.30;89.50;;;;;;4137897;28;20385;-67
2022/05/10 03:55:58;;;;;;;0.00;0.00;;;14.40;89.60;;;;;;4137688;28;20050;-70
2022/05/10 03:58:20;;;;;;;0.00;0.00;;;14.40;88.90;;;;;;4137672;28;20119;-68
2022/05/10 04:00:42;;;;;;;0.00;0.00;;;14.30;89.20;;;;;;4137588;28;20054;-69
2022/05/10 04:03:04;;;;;;;0.00;0.00;;;14.30;89.10;;;;;;4137320;28;20095;-67
2022/05/10 04:05:30;;;;;;;0.00;0.00;;;14.30;89.20;;;;;;4151343;28;20064;-68
2022/05/10 04:07:57;;;;;;;0.00;0.00;;;14.30;89.30;;;;;;4137543;28;20057;-71
2022/05/10 04:10:20;;;;;;;0.00;0.00;;;14.30;89.00;;;;;;4137654;28;20446;-67
2022/05/10 04:12:42;;;;;;;0.00;0.00;;;14.40;88.90;;;;;;4137425;28;20124;-68
2022/05/10 04:15:06;;;;;;;0.00;0.00;;;14.20;89.10;;;;;;4150916;28;20045;-64
2022/05/10 04:17:30;;;;;;;0.00;0.00;;;14.20;89.30;;;;;;4151151;28;20050;-68
2022/05/10 04:19:52;;;;;;;0.00;0.00;;;14.30;89.00;;;;;;4137430;28;20089;-66
2022/05/10 04:22:14;;;;;;;0.00;0.00;;;14.50;88.60;;;;;;4151027;28;20049;-68
2022/05/10 04:24:55;;;;;;;0.00;0.00;;;14.60;88.20;;;;;;4150843;28;20068;-67
2022/05/10 04:27:17;;;;;;;0.00;0.00;;;14.60;88.10;;;;;;4137378;28;20043;-66
2022/05/10 04:29:44;;;;;;;0.00;0.00;;;14.50;88.00;;;;;;4137370;28;20058;-68
2022/05/10 04:32:10;;;;;;;0.00;0.00;;;14.60;88.10;;;;;;4151090;28;20151;-67
2022/05/10 04:34:35;;;;;;;0.00;0.00;;;14.60;88.00;;;;;;4137533;28;20654;-67
2022/05/10 04:36:59;;;;;;;0.00;0.00;;;14.70;88.00;;;;;;4151166;28;20065;-67
2022/05/10 04:39:21;;;;;;;0.00;0.00;;;14.80;87.90;;;;;;4150980;28;20050;-66
2022/05/10 04:41:50;;;;;;;0.00;0.00;;;14.90;87.70;;;;;;4137618;28;20426;-69
2022/05/10 04:44:13;;;;;;;0.00;0.00;;;14.90;87.60;;;;;;4137416;28;20421;-69
2022/05/10 04:46:37;;;;;;;0.00;0.00;;;14.80;87.60;;;;;;4137466;28;20109;-66
2022/05/10 04:49:02;;;;;;;0.00;0.00;;;14.90;87.50;;;;;;4136958;28;20062;-67
2022/05/10 04:51:26;;;;;;;0.00;0.00;;;14.90;87.50;;;;;;4150858;28;20053;-67
2022/05/10 04:53:49;;;;;;;0.00;0.00;;;15.00;87.40;;;;;;4137304;28;20092;-66
2022/05/10 04:56:13;;;;;;;0.00;0.00;;;15.00;87.40;;;;;;4150649;28;20041;-68
2022/05/10 04:58:38;;;;;;;0.00;0.00;;;15.10;87.40;;;;;;4136750;28;20050;-66
2022/05/10 05:01:13;;;;;;;0.00;0.00;;;15.10;87.40;;;;;;4136989;28;20057;-69
2022/05/10 05:03:41;;;;;;;0.00;0.00;;;15.20;87.40;;;;;;4150841;28;20073;-67
2022/05/10 05:06:08;;;;;;;0.00;0.00;;;15.20;87.30;;;;;;4137224;28;20401;-66
2022/05/10 05:08:31;;;;;;;0.00;0.00;;;15.30;87.40;;;;;;4137103;28;20054;-68
2022/05/10 05:10:57;;;;;;;0.00;0.00;;;15.40;87.20;;;;;;4150238;28;20054;-67
2022/05/10 05:13:19;;;;;;;0.00;0.00;;;15.50;87.20;;;;;;4123210;28;20057;-66
2022/05/10 05:15:45;;;;;;;0.00;0.00;;;15.60;87.20;;;;;;4136544;28;20190;-68
2022/05/10 05:18:09;;;;;;;0.00;0.00;;;15.60;87.20;;;;;;4136709;28;20393;-67
2022/05/10 05:20:32;;;;;;;0.00;0.00;;;15.70;86.50;;;;;;4150262;28;20050;-65
2022/05/10 05:22:56;;;;;;;0.00;0.00;;;15.70;86.00;;;;;;4136950;28;20057;-67
2022/05/10 05:25:20;;;;;;;0.00;0.00;;;15.70;85.80;;;;;;4150108;28;20108;-68
2022/05/10 05:27:42;;;;;;;0.00;0.00;;;15.70;85.80;;;;;;4150123;28;20058;-68
2022/05/10 05:30:10;;;;;;;0.00;0.00;;;15.80;85.80;;;;;;4136403;28;20038;-68
2022/05/10 05:32:36;;;;;;;0.00;0.00;;;15.70;85.30;;;;;;4136180;28;20084;-66
2022/05/10 05:35:02;;;;;;;0.00;0.00;;;15.70;85.20;;;;;;4148109;28;20050;-68
2022/05/10 05:37:35;;;;;;;0.00;0.00;;;15.80;85.10;;;;;;4152820;28;20442;-69
2022/05/10 05:40:01;;;;;;;0.00;0.00;;;15.90;84.70;;;;;;4152628;28;20045;-66
2022/05/10 05:42:27;;;;;;;0.00;0.00;;;15.80;84.40;;;;;;4166526;28;20530;-67
2022/05/10 05:44:54;;;;;;;0.00;0.00;;;15.80;84.40;;;;;;4165995;28;20049;-66
2022/05/10 05:47:17;;;;;;;0.00;0.00;;;15.90;83.90;;;;;;4165934;28;20654;-66
2022/05/10 05:49:39;;;;;;;0.00;0.00;;;16.00;84.10;;;;;;4152311;28;20045;-69
2022/05/10 05:52:05;;;;;;;0.00;0.00;;;16.10;83.80;;;;;;4138749;28;20054;-67
2022/05/10 05:54:31;;;;;;;0.00;0.00;;;16.20;83.60;;;;;;4138640;28;20054;-67
2022/05/10 05:57:07;;;;;;;0.00;0.00;;;16.30;83.50;;;;;;4152224;28;20042;-68
2022/05/10 05:59:33;;;;;;;0.00;0.00;;;16.30;82.30;;;;;;4152518;28;20431;-67
2022/05/10 06:02:02;;;;;;;0.00;0.00;;;16.20;82.20;;;;;;4138776;28;20050;-67
2022/05/10 06:04:25;;;;;;;0.00;0.00;;;16.20;82.40;;;;;;4165922;28;20049;-66
2022/05/10 06:06:50;;;;;;;0.00;0.00;;;16.30;82.60;;;;;;4138438;28;20058;-66
2022/05/10 06:09:12;;;;;;;0.00;0.00;;;16.50;81.80;;;;;;4165491;28;20042;-67
2022/05/10 06:11:34;;;;;;;0.00;0.00;;;16.50;82.20;;;;;;4152086;28;20108;-68
2022/05/10 06:14:01;;;;;;;0.00;0.00;;;16.60;82.00;;;;;;4138457;28;20031;-66
2022/05/10 06:16:23;;;;;;;0.00;0.00;;;16.60;81.60;;;;;;4152022;28;20530;-66
2022/05/10 06:18:48;;;;;;;0.00;0.00;;;16.50;81.70;;;;;;4138499;28;20057;-67
2022/05/10 06:21:12;;;;;;;0.00;0.00;;;16.70;81.80;;;;;;4151705;28;20045;-67
2022/05/10 06:23:34;;;;;;;0.00;0.00;;;16.90;81.20;;;;;;4165413;28;20049;-68
2022/05/10 06:25:56;;;;;;;0.00;0.00;;;17.00;80.70;;;;;;4151678;28;20112;-67
2022/05/10 06:28:19;;;;;;;0.00;0.00;;;17.00;80.30;;;;;;4138415;28;20049;-67
2022/05/10 06:30:43;;;;;;;0.00;0.00;;;17.00;81.60;;;;;;4137907;28;20096;-67
2022/05/10 06:33:05;;;;;;;0.00;0.00;;;17.10;81.30;;;;;;4165261;28;20115;-67
2022/05/10 06:35:32;;;;;;;0.00;0.00;;;17.10;81.30;;;;;;4138188;28;20046;-68
2022/05/10 06:40:37;;;;;;;0.00;0.00;;;17.30;80.70;;;;;;4137618;28;20046;-68
2022/05/10 06:43:01;;;;;;;0.00;0.00;;;17.30;80.50;;;;;;4165305;28;20095;-67
2022/05/10 06:45:28;;;;;;;0.00;0.00;;;17.40;80.60;;;;;;4151441;28;20049;-68
2022/05/10 06:47:52;;;;;;;0.00;0.00;;;17.50;80.70;;;;;;4165146;28;20072;-66
2022/05/10 06:50:20;;;;;;;0.00;0.00;;;17.60;80.90;;;;;;4165277;28;20064;-67
2022/05/10 06:52:42;;;;;;;0.00;0.00;;;17.50;81.00;;;;;;4137815;28;20055;-67
2022/05/10 06:55:10;;;;;;;0.00;0.00;;;17.50;82.00;;;;;;4138129;28;20033;-66
2022/05/10 06:57:34;;;;;;;0.00;0.00;;;17.50;81.80;;;;;;4151340;28;20042;-66
2022/05/10 06:59:56;;;;;;;0.00;0.00;;;17.40;81.60;;;;;;4137664;28;20485;-68
2022/05/10 07:02:21;;;;;;;0.00;0.00;;;17.50;81.80;;;;;;4164942;28;20049;-69
2022/05/10 07:04:45;;;;;;;0.00;0.00;;;17.60;81.90;;;;;;4150998;28;20058;-69
2022/05/10 07:07:09;;;;;;;0.00;0.00;;;17.80;81.40;;;;;;4150886;28;20053;-67
2022/05/10 07:09:34;;;;;;;0.00;0.00;;;17.80;81.20;;;;;;4150805;28;20048;-69
2022/05/10 07:11:57;;;;;;;0.00;0.00;;;17.90;81.40;;;;;;4151317;28;20045;-68
2022/05/10 07:14:27;;;;;;;0.00;0.00;;;18.10;80.40;;;;;;4150732;28;20049;-66
2022/05/10 07:16:49;;;;;;;0.00;0.00;;;18.10;79.70;;;;;;4151164;28;20608;-67
2022/05/10 07:19:13;;;;;;;0.00;0.00;;;18.00;79.50;;;;;;4164583;28;20123;-68
2022/05/10 07:21:37;;;;;;;0.00;0.00;;;17.80;79.80;;;;;;4150162;28;20758;-67
2022/05/10 07:24:01;;;;;;;0.00;0.00;;;17.80;80.10;;;;;;4164976;28;20447;-67
2022/05/10 07:26:28;;;;;;;0.00;0.00;;;17.80;80.00;;;;;;4151106;28;20160;-68
2022/05/10 07:28:52;;;;;;;0.00;0.00;;;17.90;80.30;;;;;;4164518;28;20037;-66
2022/05/10 07:31:15;;;;;;;0.00;0.00;;;18.10;79.70;;;;;;4151074;28;20080;-68
2022/05/10 07:33:37;;;;;;;0.00;0.00;;;18.10;79.40;;;;;;4150892;28;20065;-68
2022/05/10 07:38:45;;;;;;;0.00;0.00;;;18.20;78.90;;;;;;4137433;28;20050;-68
2022/05/10 07:41:11;;;;;;;0.00;0.00;;;18.20;78.90;;;;;;4151027;28;20049;-66
2022/05/10 07:43:37;;;;;;;0.00;0.00;;;18.10;79.00;;;;;;4137131;28;20141;-65
2022/05/10 07:45:59;;;;;;;0.00;0.00;;;18.30;78.80;;;;;;4136699;28;20094;-67
2022/05/10 07:48:22;;;;;;;0.00;0.00;;;18.40;78.80;;;;;;4136548;28;20101;-67
2022/05/10 07:50:50;;;;;;;0.00;0.00;;;18.50;79.10;;;;;;4150848;28;20468;-68
2022/05/10 07:53:14;;;;;;;0.00;0.00;;;18.60;78.30;;;;;;4137767;28;20372;-68
2022/05/10 07:55:37;;;;;;;0.00;0.00;;;18.60;77.80;;;;;;4164530;28;20041;-67
2022/05/10 07:57:59;;;;;;;0.00;0.00;;;18.70;76.80;;;;;;4150883;28;20542;-69
2022/05/10 08:00:23;;;;;;;0.00;0.00;;;18.70;77.10;;;;;;4150725;28;20061;-67
2022/05/10 08:02:45;;;;;;;0.00;0.00;;;18.60;77.60;;;;;;4150645;28;20041;-68
2022/05/10 08:05:16;;;;;;;0.00;0.00;;;18.70;77.50;;;;;;4164424;28;20096;-67
2022/05/10 08:07:40;;;;;;;0.00;0.00;;;18.80;77.20;;;;;;4137055;28;20092;-66
2022/05/10 08:10:04;;;;;;;0.00;0.00;;;18.70;76.70;;;;;;4150568;28;20050;-66
2022/05/10 08:12:30;;;;;;;0.00;0.00;;;18.60;77.60;;;;;;4150577;28;20042;-67
2022/05/10 08:14:55;;;;;;;0.00;0.00;;;18.70;78.10;;;;;;4150415;28;20058;-67
2022/05/10 08:17:17;;;;;;;0.00;0.00;;;18.90;78.30;;;;;;4150346;28;20052;-67
2022/05/10 08:19:41;;;;;;;0.00;0.00;;;19.00;76.80;;;;;;4150676;28;20045;-67
2022/05/10 08:22:06;;;;;;;0.00;0.00;;;19.10;77.00;;;;;;4150435;28;20352;-67
2022/05/10 08:24:30;;;;;;;0.00;0.00;;;19.00;76.90;;;;;;4150792;28;20053;-67
2022/05/10 08:26:56;;;;;;;0.00;0.00;;;19.00;76.80;;;;;;4150512;28;20187;-66
2022/05/10 08:29:20;;;;;;;0.00;0.00;;;19.00;76.00;;;;;;4164192;28;20033;-67
2022/05/10 08:31:41;;;;;;;0.00;0.00;;;19.10;76.00;;;;;;4150597;28;20081;-67
2022/05/10 08:34:08;;;;;;;0.00;0.00;;;19.10;76.20;;;;;;4153570;28;20552;-68
2022/05/10 08:36:30;;;;;;;0.00;0.00;;;19.00;76.80;;;;;;4139854;28;20046;-68
2022/05/10 08:38:54;;;;;;;0.00;0.00;;;19.20;77.20;;;;;;4139724;28;20042;-68
2022/05/10 08:41:30;;;;;;;0.00;0.00;;;19.30;77.30;;;;;;4139909;28;20507;-66
2022/05/10 08:44:07;;;;;;;0.00;0.00;;;19.30;77.20;;;;;;4153235;28;20088;-69
2022/05/10 08:46:38;;;;;;;0.00;0.00;;;19.40;75.20;;;;;;4153246;28;20380;-65
2022/05/10 08:49:19;;;;;;;0.00;0.00;;;19.50;75.90;;;;;;4153099;28;20073;-70
2022/05/10 08:51:47;;;;;;;0.00;0.00;;;19.50;76.00;;;;;;4153437;28;20069;-68
2022/05/10 08:54:11;;;;;;;0.00;0.00;;;19.60;75.70;;;;;;4139422;28;20757;-67
2022/05/10 08:56:51;;;;;;;0.00;0.00;;;19.60;75.90;;;;;;4152960;28;20042;-68
2022/05/10 08:59:18;;;;;;;0.00;0.00;;;19.90;76.20;;;;;;4153135;28;20048;-66
2022/05/10 09:01:59;;;;;;;0.00;0.00;;;20.00;75.70;;;;;;4152991;28;20100;-68
2022/05/10 09:04:32;;;;;;;0.00;0.00;;;19.90;75.60;;;;;;4153497;28;20107;-67
2022/05/10 09:07:20;;;;;;;0.00;0.00;;;19.80;74.70;;;;;;4153071;28;20080;-66
2022/05/10 09:09:57;;;;;;;0.00;0.00;;;19.80;75.20;;;;;;4139501;28;20531;-67
2022/05/10 09:12:28;;;;;;;0.00;0.00;;;20.00;75.20;;;;;;4153158;28;20037;-68
2022/05/10 09:14:57;;;;;;;0.00;0.00;;;20.10;75.90;;;;;;4138893;28;20054;-69
2022/05/10 09:17:32;;;;;;;0.00;0.00;;;20.40;74.70;;;;;;4152635;28;20470;-68
2022/05/10 09:20:02;;;;;;;0.00;0.00;;;20.50;74.40;;;;;;4138730;28;20054;-67
2022/05/10 09:22:56;;;;;;;0.00;0.00;;;20.60;74.60;;;;;;4152888;28;20053;-66
2022/05/10 09:25:33;;;;;;;0.00;0.00;;;20.70;74.60;;;;;;4152770;28;20542;-67
2022/05/10 09:27:57;;;;;;;0.00;0.00;;;20.90;74.60;;;;;;4152636;28;20061;-66
2022/05/10 09:30:34;;;;;;;0.00;0.00;;;21.00;73.30;;;;;;4166344;28;20045;-67
2022/05/10 09:35:58;;;;;;;0.00;0.00;;;21.00;74.40;;;;;;4138928;28;20056;-66
2022/05/10 09:38:22;;;;;;;0.00;0.00;;;21.10;72.60;;;;;;4152613;28;20050;-68
2022/05/10 09:40:54;;;;;;;0.00;0.00;;;21.00;72.40;;;;;;4152285;28;20100;-66
2022/05/10 09:43:17;;;;;;;;;;;21.10;72.40;;;;;;4152635;28;20072;-67
2022/05/10 09:45:42;;;;;;;0.00;0.00;;;21.00;71.90;;;;;;4138517;28;19995;-68
2022/05/10 09:48:18;;;;;;;0.00;0.00;;;20.90;72.70;;;;;;4165736;28;20053;-66
2022/05/10 09:50:52;;;;;;;0.00;0.00;;;20.90;73.80;;;;;;4138836;28;20519;-66
2022/05/10 09:53:22;;;;;;;0.00;0.00;;;21.00;72.10;;;;;;4138830;28;20054;-67
2022/05/10 09:56:03;;;;;;;0.00;0.00;;;21.00;72.60;;;;;;4152990;28;20045;-66
2022/05/10 09:58:29;;;;;;;0.00;0.00;;;21.10;71.40;;;;;;4152032;28;20049;-68
2022/05/10 10:00:55;;;;;;;0.00;0.00;;;21.20;71.30;;;;;;4152005;28;20042;-68
2022/05/10 10:03:29;;;;;;;0.00;0.00;;;21.40;69.50;;;;;;4152078;28;20492;-68
2022/05/10 10:05:58;;;;;;;0.00;0.00;;;21.40;68.70;;;;;;4152223;28;20049;-67
2022/05/10 10:08:40;;;;;;;0.00;0.00;;;21.40;68.50;;;;;;4152297;28;20353;-66
2022/05/10 10:11:12;;;;;;;0.00;0.00;;;21.40;68.30;;;;;;4152196;28;20050;-66
2022/05/10 10:13:36;;;;;;;0.00;0.00;;;21.30;68.00;;;;;;4152076;28;20046;-68
2022/05/10 10:16:00;;;;;;;0.00;0.00;;;21.50;68.10;;;;;;4151476;28;20742;-68
2022/05/10 10:18:47;;;;;;;0.00;0.00;;;21.40;67.60;;;;;;4151576;28;20038;-68
2022/05/10 10:21:13;;;;;;;0.00;0.00;;;21.40;67.50;;;;;;4137911;28;20113;-67
2022/05/10 10:23:49;;;;;;;0.00;0.00;;;21.50;67.80;;;;;;4151710;28;20461;-67
2022/05/10 10:26:40;;;;;;;0.00;0.00;;;21.60;67.00;;;;;;4165038;28;20077;-67
2022/05/10 10:29:32;;;;;;;0.00;0.00;;;21.60;66.90;;;;;;4165315;28;20044;-68
2022/05/10 10:32:02;;;;;;;0.00;0.00;;;21.50;66.60;;;;;;4138282;28;20050;-69
2022/05/10 10:34:37;;;;;;;0.00;0.00;;;21.60;67.00;;;;;;4151502;28;20115;-67
2022/05/10 10:37:22;;;;;;;0.00;0.00;;;21.80;67.30;;;;;;4151667;28;20038;-68
2022/05/10 10:39:56;;;;;;;0.00;0.00;;;22.20;67.80;;;;;;4152277;28;20477;-68
2022/05/10 10:42:40;;;;;;;0.00;0.00;;;22.30;67.60;;;;;;4166637;28;20566;-65
2022/05/10 10:45:04;;;;;;;0.00;0.00;;;22.50;67.30;;;;;;4165769;28;20037;-66
2022/05/10 10:47:55;;;;;;;0.00;0.00;;;22.60;66.20;;;;;;4165797;28;20061;-65
2022/05/10 10:50:25;;;;;;;0.00;0.00;;;22.60;68.40;;;;;;4138652;28;20050;-64
2022/05/10 10:52:51;;;;;;;0.00;0.00;;;22.70;66.60;;;;;;4152782;28;20107;-65
2022/05/10 10:55:18;;;;;;;0.00;0.00;;;22.60;65.00;;;;;;4152010;28;20045;-65
2022/05/10 10:58:11;;;;;;;0.00;0.00;;;22.60;65.30;;;;;;4179102;28;20427;-67
2022/05/10 11:00:49;;;;;;;0.00;0.00;;;22.70;67.00;;;;;;4165407;28;20423;-65
2022/05/10 11:03:14;;;;;;;0.00;0.00;;;23.00;65.90;;;;;;4151690;28;20116;-67
2022/05/10 11:06:19;;;;;;;0.00;0.00;;;23.10;66.20;;;;;;4165041;28;20060;-65
2022/05/10 11:09:01;;;;;;;0.00;0.00;;;23.40;66.00;;;;;;4164930;28;20115;-66
2022/05/10 11:11:53;;;;;;;0.00;0.00;;;23.30;64.80;;;;;;4150766;28;20128;-65
2022/05/10 11:14:50;;;;;;;0.00;0.00;;;23.20;65.70;;;;;;4164977;28;20091;-66
2022/05/10 11:17:40;;;;;;;0.00;0.00;;;23.50;64.70;;;;;;4137311;28;20559;-65
2022/05/10 11:20:19;;;;;;;0.00;0.00;;;23.60;65.40;;;;;;4164607;28;20040;-65
2022/05/10 11:23:06;;;;;;;0.00;0.00;;;23.70;65.20;;;;;;4164927;28;20053;-65
2022/05/10 11:25:50;;;;;;;0.00;0.00;;;23.80;64.50;;;;;;4164524;28;20045;-65
2022/05/10 11:28:49;;;;;;;0.00;0.00;;;23.90;63.60;;;;;;4137101;28;20134;-66
2022/05/10 11:31:49;;;;;;;0.00;0.00;;;24.00;64.50;;;;;;4150985;28;20485;-64
2022/05/10 11:34:40;;;;;;;0.00;0.00;;;24.20;63.80;;;;;;4133398;28;20059;-66
2022/05/10 11:37:09;;;;;;;0.00;0.00;;;24.40;64.20;;;;;;4120507;28;20111;-66
2022/05/10 11:39:58;;;;;;;0.00;0.00;;;24.40;64.80;;;;;;4147041;28;20054;-65
2022/05/10 11:42:46;;;;;;;0.00;0.00;;;24.50;63.90;;;;;;4147553;28;20373;-65
2022/05/10 11:45:36;;;;;;;0.00;0.00;;;24.50;64.60;;;;;;4133808;28;20058;-64
2022/05/10 11:48:29;;;;;;;0.00;0.00;;;24.50;63.90;;;;;;4147170;28;20046;-65
2022/05/10 11:51:42;;;;;;;0.00;0.00;;;24.50;62.80;;;;;;4133715;28;20056;-65
2022/05/10 11:54:45;;;;;;;0.00;0.00;;;24.60;64.40;;;;;;4147756;28;20057;-65
2022/05/10 11:57:18;;;;;;;0.00;0.00;;;24.70;62.00;;;;;;4147354;28;20050;-65
2022/05/10 11:59:44;;;;;;;0.00;0.00;;;24.60;60.80;;;;;;4147691;28;20046;-65
2022/05/10 12:02:29;;;;;;;0.00;0.00;;;24.70;61.30;;;;;;4147278;28;20065;-65
2022/05/10 12:05:14;;;;;;;0.00;0.00;;;24.90;61.60;;;;;;4141971;28;20066;-64
2022/05/10 12:07:53;;;;;;;0.00;0.00;;;24.90;61.00;;;;;;4165311;28;20060;-65
2022/05/10 12:10:21;;;;;;;0.00;0.00;;;24.90;60.30;;;;;;4167614;28;20053;-65
2022/05/10 12:12:49;;;;;;;0.00;0.00;;;24.90;59.30;;;;;;4167440;28;20049;-65
2022/05/10 12:21:27;;;;;;;0.00;0.00;;;24.90;57.90;;;;;;4167424;28;20060;-66
2022/05/10 12:24:25;;;;;;;0.00;0.00;;;24.80;57.00;;;;;;4139792;28;20069;-67
2022/05/10 12:26:59;;;;;;;0.00;0.00;;;24.80;58.10;;;;;;4153425;28;20048;-66
2022/05/10 12:29:39;;;;;;;0.00;0.00;;;25.00;57.70;;;;;;4167286;28;20041;-65
2022/05/10 12:32:11;;;;;;;0.00;0.00;;;25.10;58.80;;;;;;4167389;28;20452;-65
2022/05/10 12:34:46;;;;;;;0.00;0.00;;;25.30;58.60;;;;;;4167378;28;20049;-66
2022/05/10 12:37:30;;;;;;;0.00;0.00;;;25.30;57.80;;;;;;4167216;28;20045;-64
2022/05/10 12:39:54;;;;;;;0.00;0.00;;;25.30;58.10;;;;;;4167096;28;20085;-66
2022/05/10 12:42:31;;;;;;;0.00;0.00;;;25.40;57.80;;;;;;4139951;28;20046;-66
2022/05/10 12:45:02;;;;;;;0.00;0.00;;;25.50;57.30;;;;;;4166983;28;20049;-65
2022/05/10 12:47:46;;;;;;;0.00;0.00;;;25.50;58.00;;;;;;4153096;28;20049;-64
2022/05/10 12:50:11;;;;;;;0.00;0.00;;;25.60;58.20;;;;;;4167070;28;20108;-64
2022/05/10 12:52:47;;;;;;;0.00;0.00;;;25.60;57.10;;;;;;4139691;28;20489;-66
2022/05/10 12:55:16;;;;;;;0.00;0.00;;;25.60;57.00;;;;;;4180817;28;20060;-65
2022/05/10 12:57:43;;;;;;;0.00;0.00;;;25.60;57.60;;;;;;4166814;28;20041;-67
2022/05/10 13:00:38;;;;;;;0.00;0.00;;;25.60;56.40;;;;;;4153183;28;20083;-65
2022/05/10 13:03:13;;;;;;;0.00;0.00;;;25.70;56.50;;;;;;4153025;28;20475;-64
2022/05/10 13:05:56;;;;;;;0.00;0.00;;;25.70;56.40;;;;;;4166576;28;20119;-65
2022/05/10 13:08:47;;;;;;;0.00;0.00;;;25.70;56.20;;;;;;4166829;28;20490;-65
2022/05/10 13:11:59;;;;;;;0.00;0.00;;;25.80;56.70;;;;;;4166280;28;20049;-65
2022/05/10 13:14:26;;;;;;;0.00;0.00;;;25.70;56.00;;;;;;4152467;28;20042;-64
2022/05/10 13:16:59;;;;;;;0.00;0.00;;;25.70;55.70;;;;;;4152034;28;20033;-66
2022/05/10 13:19:24;;;;;;;0.00;0.00;;;25.80;55.30;;;;;;4166376;28;20048;-65
2022/05/10 13:21:55;;;;;;;0.00;0.00;;;25.80;55.10;;;;;;4165516;28;20320;-66
2022/05/10 13:24:19;;;;;;;0.00;0.00;;;25.80;54.40;;;;;;4165997;28;20097;-64
2022/05/10 13:27:01;;;;;;;0.00;0.00;;;25.90;54.20;;;;;;4166296;28;20045;-66